Time;durP1;ratioP1;P1;durP2;ratioP2;P2;SDS_P1;SDS_P2;PMS_P1;PMS_P2;Temp;Humidity;BMP_temperature;BMP_pressure;BME280_temperature;BME280_humidity;BME280_pressure;Samples;Min_cycle;Max_cycle;Signal;HPM_P1;HPM_P2
2024/02/11 00:02:23;;;;;;;9.32;6.25;;;9.60;71.70;;;;;;5012369;28;20286;-88
2024/02/11 00:04:52;;;;;;;10.07;6.10;;;9.60;70.90;;;;;;4991854;28;20207;-88
2024/02/11 00:07:19;;;;;;;8.35;6.03;;;9.50;70.40;;;;;;5010977;28;20199;-89
2024/02/11 00:09:47;;;;;;;7.88;5.97;;;9.40;71.60;;;;;;4989883;28;20217;-88
2024/02/11 00:12:17;;;;;;;12.82;6.63;;;9.40;73.20;;;;;;5015294;28;20213;-88
2024/02/11 00:14:45;;;;;;;8.18;6.30;;;9.20;74.10;;;;;;5011766;28;20301;-88
2024/02/11 00:17:14;;;;;;;9.50;6.70;;;9.30;74.30;;;;;;5010976;28;20202;-88
2024/02/11 00:19:50;;;;;;;11.00;6.72;;;9.30;74.20;;;;;;5008879;28;20203;-88
2024/02/11 00:22:26;;;;;;;11.15;5.30;;;9.30;74.20;;;;;;5004961;28;20691;-88
2024/02/11 00:24:55;;;;;;;9.32;5.53;;;9.20;74.20;;;;;;4987954;28;20282;-88
2024/02/11 00:27:23;;;;;;;9.23;5.30;;;9.10;74.10;;;;;;5013795;28;20207;-88
2024/02/11 00:30:04;;;;;;;9.05;5.10;;;9.10;73.90;;;;;;5068294;27;1401020;-88
2024/02/11 00:32:32;;;;;;;5.95;4.10;;;9.10;72.40;;;;;;5073674;28;20199;-87
2024/02/11 00:35:00;;;;;;;7.18;3.42;;;9.20;65.90;;;;;;5086488;28;20748;-88
2024/02/11 00:37:29;;;;;;;6.38;3.60;;;9.40;63.10;;;;;;5091062;28;20667;-88
2024/02/11 00:39:56;;;;;;;4.68;3.22;;;9.50;60.00;;;;;;5083078;28;20288;-88
2024/02/11 00:42:27;;;;;;;6.30;3.22;;;9.70;57.80;;;;;;5075455;28;20280;-88
2024/02/11 00:44:56;;;;;;;4.65;3.22;;;9.90;55.80;;;;;;5071145;28;20591;-88
2024/02/11 00:47:23;;;;;;;3.63;3.22;;;10.10;51.50;;;;;;5053189;28;20208;-90
2024/02/11 00:49:52;;;;;;;4.90;3.10;;;10.10;50.60;;;;;;5082924;28;20224;-89
2024/02/11 00:52:19;;;;;;;4.28;3.28;;;10.10;49.70;;;;;;5081107;28;20211;-88
2024/02/11 00:54:47;;;;;;;9.82;3.20;;;10.20;49.50;;;;;;5086522;28;20209;-88
2024/02/11 00:57:20;;;;;;;4.68;2.95;;;10.20;50.40;;;;;;5064100;28;20266;-88
2024/02/11 00:59:47;;;;;;;4.45;2.78;;;10.20;49.60;;;;;;5078921;28;20193;-88
2024/02/11 01:02:21;;;;;;;4.15;2.90;;;10.20;49.90;;;;;;5090552;28;20204;-88
2024/02/11 01:04:50;;;;;;;4.13;3.08;;;10.10;50.50;;;;;;5078578;28;20224;-88
2024/02/11 01:07:17;;;;;;;4.10;2.95;;;10.20;50.40;;;;;;5085513;28;20223;-88
2024/02/11 01:09:48;;;;;;;4.28;2.72;;;10.20;50.70;;;;;;5046324;28;20213;-88
2024/02/11 01:12:17;;;;;;;4.43;3.10;;;10.20;51.50;;;;;;5078822;28;20201;-88
2024/02/11 01:14:45;;;;;;;4.90;3.28;;;10.20;51.30;;;;;;5081174;28;20332;-88
2024/02/11 01:17:23;;;;;;;4.22;3.30;;;10.30;51.70;;;;;;5061973;28;20205;-88
2024/02/11 01:19:55;;;;;;;5.50;3.60;;;10.30;52.30;;;;;;5079757;28;20646;-89
2024/02/11 01:22:24;;;;;;;5.18;3.20;;;10.30;54.20;;;;;;5080482;28;20196;-88
2024/02/11 01:27:37;;;;;;;4.50;3.47;;;10.40;54.00;;;;;;5093368;28;20197;-88
2024/02/11 01:30:09;;;;;;;6.53;3.90;;;10.40;54.90;;;;;;5086464;28;20237;-88
2024/02/11 01:32:36;;;;;;;9.68;4.20;;;10.30;56.70;;;;;;5081498;28;20201;-88
2024/02/11 01:35:12;;;;;;;7.20;3.78;;;10.30;56.80;;;;;;5065935;28;20209;-88
2024/02/11 01:37:44;;;;;;;5.95;3.95;;;10.30;57.80;;;;;;5086428;28;20204;-88
2024/02/11 01:40:18;;;;;;;6.18;3.90;;;10.30;58.90;;;;;;5066435;28;20205;-88
2024/02/11 01:42:45;;;;;;;5.13;3.95;;;10.30;59.30;;;;;;5060901;28;20288;-88
2024/02/11 01:45:17;;;;;;;5.00;4.18;;;10.30;60.20;;;;;;5067224;28;20209;-89
2024/02/11 01:50:37;;;;;;;4.95;3.85;;;10.30;61.50;;;;;;5058347;28;20238;-88
2024/02/11 01:53:07;;;;;;;4.65;3.70;;;10.30;62.00;;;;;;5049432;28;20228;-88
2024/02/11 01:55:37;;;;;;;5.47;4.13;;;10.30;62.10;;;;;;5067844;28;20201;-88
2024/02/11 01:58:08;;;;;;;7.10;3.90;;;10.30;62.20;;;;;;5064849;28;20320;-87
2024/02/11 02:00:40;;;;;;;6.97;4.05;;;10.40;62.20;;;;;;5071277;28;20206;-89
2024/02/11 02:03:19;;;;;;;5.25;4.07;;;10.40;63.10;;;;;;5039788;28;20198;-88
2024/02/11 02:06:00;;;;;;;4.50;4.07;;;10.30;63.00;;;;;;5067788;28;20200;-88
2024/02/11 02:08:30;;;;;;;5.70;4.10;;;10.30;64.00;;;;;;5070746;28;20901;-89
2024/02/11 02:11:03;;;;;;;5.13;4.10;;;10.20;65.20;;;;;;5067609;28;20197;-88
2024/02/11 02:13:30;;;;;;;5.40;4.35;;;10.20;65.90;;;;;;5065120;28;20209;-88
2024/02/11 02:16:06;;;;;;;5.85;4.38;;;10.10;67.20;;;;;;5061077;28;20292;-88
2024/02/11 02:18:38;;;;;;;5.47;4.10;;;10.10;67.60;;;;;;5066541;28;20194;-88
2024/02/11 02:21:13;;;;;;;5.63;4.38;;;10.10;68.00;;;;;;5071470;28;20255;-87
2024/02/11 02:23:42;;;;;;;7.80;4.72;;;10.20;67.60;;;;;;5052340;28;20275;-88
2024/02/11 02:26:11;;;;;;;5.97;4.40;;;10.20;67.70;;;;;;5071170;28;20787;-88
2024/02/11 02:28:39;;;;;;;5.63;4.55;;;10.20;67.60;;;;;;5069554;28;20222;-89
2024/02/11 02:31:07;;;;;;;8.18;4.30;;;10.30;68.60;;;;;;5053312;28;20212;-89
2024/02/11 02:33:39;;;;;;;6.05;4.63;;;10.30;69.40;;;;;;5048957;28;20198;-88
2024/02/11 02:36:07;;;;;;;5.75;4.55;;;10.30;69.60;;;;;;5049991;28;20197;-88
2024/02/11 02:38:36;;;;;;;5.88;4.50;;;10.20;73.20;;;;;;5071315;28;20672;-88
2024/02/11 02:41:05;;;;;;;7.85;5.10;;;10.20;73.20;;;;;;5064965;28;20662;-88
2024/02/11 02:43:41;;;;;;;9.90;5.13;;;10.20;73.30;;;;;;5072862;28;20200;-88
2024/02/11 02:46:10;;;;;;;6.60;5.10;;;10.20;73.70;;;;;;5069961;28;20193;-88
2024/02/11 02:48:38;;;;;;;7.88;5.25;;;10.10;76.00;;;;;;5050876;28;20640;-88
2024/02/11 02:51:08;;;;;;;6.43;5.55;;;10.20;76.60;;;;;;5044638;28;20204;-88
2024/02/11 02:53:35;;;;;;;6.10;5.03;;;10.20;76.90;;;;;;5046694;28;20696;-88
2024/02/11 02:56:05;;;;;;;7.20;5.35;;;10.20;78.60;;;;;;5043483;28;20205;-87
2024/02/11 02:58:32;;;;;;;7.63;5.57;;;10.10;80.00;;;;;;5067294;28;20233;-88
2024/02/11 03:01:00;;;;;;;6.70;5.65;;;10.00;82.40;;;;;;5043129;28;20213;-88
2024/02/11 03:03:28;;;;;;;8.98;6.03;;;10.10;83.80;;;;;;5064766;28;20197;-88
2024/02/11 03:06:02;;;;;;;7.75;6.20;;;10.10;84.10;;;;;;5051498;28;20198;-88
2024/02/11 03:08:31;;;;;;;9.82;6.53;;;10.00;86.70;;;;;;5042668;28;20649;-88
2024/02/11 03:10:59;;;;;;;8.05;6.60;;;10.00;88.00;;;;;;5046847;28;20202;-88
2024/02/11 03:13:28;;;;;;;9.82;7.60;;;9.90;90.70;;;;;;5054740;28;20197;-88
2024/02/11 03:15:55;;;;;;;10.13;7.57;;;9.80;91.90;;;;;;5072657;28;20569;-88
2024/02/11 03:18:23;;;;;;;8.90;6.97;;;9.70;93.10;;;;;;5066175;28;20200;-87
2024/02/11 03:20:50;;;;;;;10.95;7.40;;;9.80;93.80;;;;;;5057569;28;20577;-87
2024/02/11 03:23:17;;;;;;;8.98;7.07;;;9.70;94.10;;;;;;5036611;28;20236;-88
2024/02/11 03:25:45;;;;;;;8.05;6.90;;;9.70;94.60;;;;;;5054334;28;20585;-87
2024/02/11 03:28:13;;;;;;;9.40;7.68;;;9.70;95.00;;;;;;5055360;28;20204;-88
2024/02/11 03:30:42;;;;;;;10.40;8.18;;;9.70;95.30;;;;;;5070459;28;20603;-88
2024/02/11 03:33:08;;;;;;;9.02;8.13;;;9.60;95.70;;;;;;5059292;28;20205;-88
2024/02/11 03:35:35;;;;;;;8.85;7.60;;;9.60;96.00;;;;;;5072236;28;20585;-87
2024/02/11 03:38:04;;;;;;;9.82;7.93;;;9.60;96.00;;;;;;5066884;28;20216;-88
2024/02/11 03:40:37;;;;;;;8.88;7.78;;;9.60;96.00;;;;;;5060390;28;20198;-88
2024/02/11 03:43:06;;;;;;;8.90;8.00;;;9.70;96.30;;;;;;5064813;28;20209;-87
2024/02/11 03:45:35;;;;;;;9.68;8.02;;;9.60;96.80;;;;;;5042698;28;20202;-88
2024/02/11 03:48:07;;;;;;;9.23;7.93;;;9.60;96.70;;;;;;5045802;28;20241;-88
2024/02/11 03:50:35;;;;;;;9.57;7.93;;;9.60;96.80;;;;;;5042192;28;20296;-87
2024/02/11 03:53:02;;;;;;;10.35;9.10;;;9.60;97.20;;;;;;5049683;28;20205;-87
2024/02/11 03:55:29;;;;;;;9.68;8.40;;;9.50;97.70;;;;;;5030405;28;20886;-88
2024/02/11 03:58:01;;;;;;;9.82;8.25;;;9.50;97.90;;;;;;5046742;28;20313;-88
2024/02/11 04:00:30;;;;;;;9.45;8.43;;;9.50;98.10;;;;;;5075213;28;20259;-88
2024/02/11 04:02:57;;;;;;;9.73;8.27;;;9.60;98.20;;;;;;5070006;28;20723;-88
2024/02/11 04:05:28;;;;;;;10.18;8.52;;;9.60;97.90;;;;;;5043816;28;20233;-88
2024/02/11 04:07:56;;;;;;;10.35;8.20;;;9.50;98.10;;;;;;5043719;28;20202;-88
2024/02/11 04:10:28;;;;;;;9.75;7.95;;;9.60;98.00;;;;;;5068947;28;20231;-88
2024/02/11 04:12:58;;;;;;;9.63;8.27;;;9.60;97.90;;;;;;5076878;28;20228;-89
2024/02/11 04:15:27;;;;;;;9.10;7.30;;;9.60;97.90;;;;;;5073960;28;20224;-88
2024/02/11 04:17:56;;;;;;;9.63;8.00;;;9.70;97.70;;;;;;5067984;28;20201;-88
2024/02/11 04:20:26;;;;;;;8.93;7.68;;;9.60;97.70;;;;;;5069451;28;20212;-88
2024/02/11 04:22:57;;;;;;;8.77;7.57;;;9.60;97.80;;;;;;5037744;28;20858;-88
2024/02/11 04:25:25;;;;;;;8.52;7.60;;;9.60;98.00;;;;;;5067699;28;20189;-88
2024/02/11 04:27:52;;;;;;;9.18;7.10;;;9.70;98.00;;;;;;5069817;28;20212;-88
2024/02/11 04:30:20;;;;;;;8.35;7.50;;;9.60;98.50;;;;;;5054440;28;20298;-88
2024/02/11 04:32:47;;;;;;;8.48;7.57;;;9.50;98.70;;;;;;5068015;28;20254;-88
2024/02/11 04:35:15;;;;;;;8.30;7.45;;;9.50;99.40;;;;;;5068486;28;20233;-88
2024/02/11 04:37:46;;;;;;;8.10;7.22;;;9.40;99.80;;;;;;5067768;28;20223;-88
2024/02/11 04:40:16;;;;;;;8.07;7.28;;;9.40;99.90;;;;;;5045548;28;20240;-88
2024/02/11 04:42:45;;;;;;;9.32;7.32;;;9.30;99.90;;;;;;5069332;28;20567;-87
2024/02/11 04:45:15;;;;;;;9.50;6.68;;;9.20;99.90;;;;;;5061242;28;20193;-87
2024/02/11 04:47:45;;;;;;;7.18;6.47;;;9.20;99.90;;;;;;5061957;28;20228;-87
2024/02/11 04:50:15;;;;;;;7.80;6.35;;;9.20;99.90;;;;;;5063465;28;20213;-86
2024/02/11 04:52:47;;;;;;;7.13;6.10;;;9.10;99.90;;;;;;5067854;28;20276;-87
2024/02/11 04:55:18;;;;;;;4.45;3.58;;;9.00;99.90;;;;;;5065765;28;20197;-87
2024/02/11 04:57:45;;;;;;;2.00;1.75;;;8.80;99.90;;;;;;5060036;28;20217;-87
2024/02/11 05:00:24;;;;;;;2.00;1.83;;;8.60;99.40;;;;;;5064724;28;20205;-87
2024/02/11 05:02:51;;;;;;;2.03;1.63;;;8.30;99.30;;;;;;5064064;28;20236;-88
2024/02/11 05:05:20;;;;;;;1.33;1.23;;;8.20;99.90;;;;;;5066149;28;20217;-87
2024/02/11 05:07:51;;;;;;;1.10;1.00;;;8.00;98.90;;;;;;5030527;28;20221;-87
2024/02/11 05:10:21;;;;;;;0.95;0.95;;;7.80;99.00;;;;;;5046476;28;20787;-87
2024/02/11 05:12:49;;;;;;;0.60;0.60;;;7.60;98.50;;;;;;5060171;28;20204;-87
2024/02/11 05:15:20;;;;;;;0.73;0.70;;;7.40;98.30;;;;;;5069550;28;20204;-86
2024/02/11 05:17:48;;;;;;;0.55;0.55;;;7.30;98.70;;;;;;5072900;28;20202;-87
2024/02/11 05:20:21;;;;;;;0.30;0.30;;;7.20;99.10;;;;;;5060597;28;20255;-87
2024/02/11 05:22:48;;;;;;;0.40;0.40;;;7.10;99.40;;;;;;5070711;28;20285;-87
2024/02/11 05:25:18;;;;;;;0.65;0.65;;;7.00;99.40;;;;;;5079391;28;20193;-87
2024/02/11 05:27:51;;;;;;;0.60;0.40;;;6.90;99.60;;;;;;5062499;28;20292;-88
2024/02/11 05:30:18;;;;;;;0.40;0.40;;;6.90;99.70;;;;;;5072153;28;20221;-87
2024/02/11 05:32:47;;;;;;;1.27;0.50;;;6.90;99.90;;;;;;5072369;28;20971;-87
2024/02/11 05:35:17;;;;;;;0.70;0.70;;;6.80;99.50;;;;;;5065915;28;20351;-87
2024/02/11 05:37:44;;;;;;;0.80;0.80;;;6.70;99.90;;;;;;5070338;28;20202;-86
2024/02/11 05:40:12;;;;;;;0.50;0.50;;;6.70;99.90;;;;;;5049414;28;20582;-87
2024/02/11 05:42:40;;;;;;;0.50;0.50;;;6.70;99.90;;;;;;5070048;28;20200;-86
2024/02/11 05:45:09;;;;;;;0.57;0.57;;;6.60;99.60;;;;;;5068104;28;20197;-87
2024/02/11 05:47:36;;;;;;;0.63;0.63;;;6.50;99.90;;;;;;5065632;28;20555;-87
2024/02/11 05:50:05;;;;;;;0.47;0.47;;;6.50;99.90;;;;;;5066386;28;20342;-87
2024/02/11 05:52:32;;;;;;;2.67;0.40;;;6.50;99.90;;;;;;5067118;28;20353;-87
2024/02/11 05:54:59;;;;;;;0.40;0.40;;;6.50;99.90;;;;;;5068832;28;20290;-86
2024/02/11 05:57:26;;;;;;;0.70;0.50;;;6.50;99.90;;;;;;5049415;28;20384;-87
2024/02/11 05:59:53;;;;;;;0.50;0.50;;;6.40;99.90;;;;;;5064496;28;20193;-86
2024/02/11 06:02:22;;;;;;;0.60;0.60;;;6.50;99.90;;;;;;5065578;28;20201;-86
2024/02/11 06:04:49;;;;;;;0.77;0.77;;;6.40;99.90;;;;;;5066336;28;20206;-86
2024/02/11 06:07:16;;;;;;;0.60;0.60;;;6.30;99.90;;;;;;5067409;28;20246;-86
2024/02/11 06:09:43;;;;;;;0.67;0.67;;;6.30;99.90;;;;;;5071342;28;20229;-86
2024/02/11 06:12:11;;;;;;;0.83;0.80;;;6.30;99.90;;;;;;5063853;28;20233;-85
2024/02/11 06:14:38;;;;;;;1.27;0.80;;;6.20;99.90;;;;;;5073932;28;20197;-86
2024/02/11 06:17:06;;;;;;;0.80;0.80;;;6.20;99.20;;;;;;5065206;28;20201;-85
2024/02/11 06:19:35;;;;;;;0.70;0.70;;;6.10;99.70;;;;;;5062729;28;20194;-85
2024/02/11 06:22:02;;;;;;;0.77;0.77;;;6.10;99.60;;;;;;5072288;28;20229;-85
2024/02/11 06:24:29;;;;;;;0.83;0.83;;;6.10;99.70;;;;;;5070219;28;20190;-85
2024/02/11 06:26:58;;;;;;;0.97;0.87;;;6.00;99.60;;;;;;5066961;28;20272;-86
2024/02/11 06:29:26;;;;;;;1.00;1.00;;;5.90;99.70;;;;;;5063210;28;20217;-86
2024/02/11 06:31:53;;;;;;;0.97;0.80;;;5.80;99.50;;;;;;5064838;28;20197;-86
2024/02/11 06:34:21;;;;;;;1.00;1.00;;;5.80;99.60;;;;;;5064979;28;20201;-86
2024/02/11 06:36:49;;;;;;;1.00;1.00;;;5.80;99.80;;;;;;5060337;28;20243;-85
2024/02/11 06:39:18;;;;;;;1.00;1.00;;;5.70;99.90;;;;;;5068590;28;20207;-85
2024/02/11 06:41:45;;;;;;;1.67;1.00;;;5.60;99.90;;;;;;5073746;28;20197;-85
2024/02/11 06:44:12;;;;;;;0.77;0.77;;;5.60;99.90;;;;;;5050007;28;20657;-85
2024/02/11 06:46:39;;;;;;;1.00;0.90;;;5.60;99.90;;;;;;5068647;28;20200;-85
2024/02/11 06:49:06;;;;;;;0.80;0.80;;;5.60;99.90;;;;;;5065360;28;20214;-84
2024/02/11 06:51:33;;;;;;;0.80;0.80;;;5.60;99.90;;;;;;5072616;28;20275;-85
2024/02/11 06:54:02;;;;;;;1.10;0.90;;;5.50;99.90;;;;;;5071758;28;20201;-85
2024/02/11 06:56:28;;;;;;;1.13;0.80;;;5.60;99.90;;;;;;5048884;28;20267;-85
2024/02/11 06:58:57;;;;;;;0.70;0.70;;;5.50;99.90;;;;;;5053897;28;20197;-85
2024/02/11 07:01:24;;;;;;;0.80;0.80;;;5.50;99.90;;;;;;5067612;28;20198;-83
2024/02/11 07:03:51;;;;;;;0.70;0.70;;;5.40;99.50;;;;;;5063144;28;20198;-85
2024/02/11 07:06:18;;;;;;;0.70;0.70;;;5.30;99.50;;;;;;5071747;28;20208;-85
2024/02/11 07:08:45;;;;;;;0.70;0.70;;;5.30;99.60;;;;;;5069824;28;20219;-84
2024/02/11 07:11:16;;;;;;;1.23;0.80;;;5.30;99.80;;;;;;5060105;28;20229;-85
2024/02/11 07:13:43;;;;;;;0.60;0.60;;;5.30;99.90;;;;;;5065800;28;20201;-84
2024/02/11 07:16:10;;;;;;;0.80;0.80;;;5.20;99.80;;;;;;5073640;28;20221;-84
2024/02/11 07:18:38;;;;;;;0.80;0.80;;;5.20;99.90;;;;;;5064843;28;20201;-86
2024/02/11 07:21:05;;;;;;;0.73;0.73;;;5.20;99.80;;;;;;5060363;28;20217;-84
2024/02/11 07:23:32;;;;;;;1.23;0.87;;;5.10;99.90;;;;;;5058831;28;20198;-85
2024/02/11 07:25:59;;;;;;;0.80;0.80;;;5.10;99.90;;;;;;5072975;28;20202;-85
2024/02/11 07:28:27;;;;;;;0.90;0.90;;;5.10;99.90;;;;;;5072230;28;20200;-84
2024/02/11 07:30:56;;;;;;;0.87;0.83;;;5.10;99.90;;;;;;5071005;28;20233;-85
2024/02/11 07:33:23;;;;;;;1.10;1.00;;;5.10;99.90;;;;;;5069811;28;20189;-84
2024/02/11 07:35:50;;;;;;;1.07;1.00;;;5.00;99.90;;;;;;5068907;28;20607;-84
2024/02/11 07:38:16;;;;;;;1.20;1.10;;;5.00;99.90;;;;;;5073216;28;20205;-85
2024/02/11 07:40:45;;;;;;;1.00;0.90;;;5.00;99.90;;;;;;5051451;28;20208;-85
2024/02/11 07:43:12;;;;;;;1.03;1.03;;;5.00;99.90;;;;;;5073742;28;20193;-84
2024/02/11 07:45:42;;;;;;;1.00;1.00;;;5.10;99.90;;;;;;5074005;28;20208;-88
2024/02/11 07:48:09;;;;;;;1.93;1.40;;;5.00;99.90;;;;;;5066011;28;20197;-85
2024/02/11 07:50:36;;;;;;;1.00;1.00;;;5.10;99.90;;;;;;5074604;28;20230;-86
2024/02/11 07:53:04;;;;;;;2.43;1.20;;;5.10;99.90;;;;;;5063266;28;20197;-88
2024/02/11 07:55:33;;;;;;;1.30;1.20;;;5.10;99.90;;;;;;5066221;28;20244;-84
2024/02/11 07:58:01;;;;;;;1.30;1.20;;;5.00;99.90;;;;;;5066086;28;20252;-86
2024/02/11 08:00:31;;;;;;;1.40;1.30;;;5.00;99.90;;;;;;5071212;28;20731;-85
2024/02/11 08:02:59;;;;;;;1.60;1.50;;;5.00;99.90;;;;;;5043226;28;20245;-85
2024/02/11 08:05:26;;;;;;;1.47;1.37;;;5.10;99.90;;;;;;5061928;28;20201;-84
2024/02/11 08:07:56;;;;;;;1.37;1.27;;;5.10;99.90;;;;;;5071171;28;20665;-84
2024/02/11 08:10:23;;;;;;;1.37;1.27;;;5.10;99.90;;;;;;5066337;28;20217;-84
2024/02/11 08:15:37;;;;;;;1.40;1.30;;;5.10;99.90;;;;;;5067142;28;20209;-84
2024/02/11 08:18:08;;;;;;;1.40;1.30;;;5.10;99.90;;;;;;5066500;28;20221;-85
2024/02/11 08:20:35;;;;;;;1.80;1.70;;;5.10;99.90;;;;;;5070647;28;20196;-84
2024/02/11 08:23:03;;;;;;;1.60;1.50;;;5.20;99.90;;;;;;5064158;28;20662;-81
2024/02/11 08:25:30;;;;;;;1.70;1.60;;;5.30;99.90;;;;;;5037722;28;20198;-85
2024/02/11 08:27:56;;;;;;;3.27;1.70;;;5.20;99.90;;;;;;5063639;28;20198;-85
2024/02/11 08:30:24;;;;;;;1.50;1.40;;;5.30;99.90;;;;;;5063169;28;20622;-83
2024/02/11 08:32:51;;;;;;;1.40;1.30;;;5.30;99.90;;;;;;5048249;28;20197;-84
2024/02/11 08:35:20;;;;;;;2.10;1.90;;;5.40;99.90;;;;;;5065879;28;20197;-84
2024/02/11 08:37:47;;;;;;;2.03;1.87;;;5.40;99.90;;;;;;5060247;28;20593;-84
2024/02/11 08:40:15;;;;;;;1.70;1.60;;;5.30;99.90;;;;;;5062919;28;20205;-85
2024/02/11 08:42:42;;;;;;;1.70;1.60;;;5.30;99.90;;;;;;5066282;28;20196;-85
2024/02/11 08:45:10;;;;;;;2.80;2.13;;;5.30;99.90;;;;;;5061916;28;20193;-86
2024/02/11 08:47:36;;;;;;;1.90;1.80;;;5.30;99.90;;;;;;5066644;28;20598;-86
2024/02/11 08:50:04;;;;;;;1.80;1.70;;;5.30;99.90;;;;;;5066977;28;20208;-86
2024/02/11 08:52:33;;;;;;;1.70;1.60;;;5.30;99.90;;;;;;5066601;28;20228;-85
2024/02/11 08:54:59;;;;;;;2.33;2.13;;;5.40;99.90;;;;;;5067332;28;20197;-85
2024/02/11 08:57:27;;;;;;;4.60;2.77;;;5.40;99.90;;;;;;5061707;28;20228;-85
2024/02/11 08:59:54;;;;;;;2.87;2.40;;;5.50;99.90;;;;;;5073172;28;20209;-86
2024/02/11 09:02:25;;;;;;;1.80;1.67;;;5.60;99.90;;;;;;5068120;28;20197;-85
2024/02/11 09:04:53;;;;;;;3.03;2.30;;;5.70;99.90;;;;;;5075823;28;20197;-86
2024/02/11 09:07:22;;;;;;;2.27;2.07;;;5.80;99.90;;;;;;5064129;28;20202;-87
2024/02/11 09:09:50;;;;;;;2.23;2.03;;;5.80;99.90;;;;;;5049947;28;20201;-88
2024/02/11 09:12:17;;;;;;;1.93;1.83;;;5.80;99.90;;;;;;5060461;28;20217;-88
2024/02/11 09:14:43;;;;;;;3.70;3.03;;;5.80;99.90;;;;;;5069725;28;20209;-88
2024/02/11 09:17:11;;;;;;;1.90;1.80;;;5.90;99.90;;;;;;5070568;28;20216;-87
2024/02/11 09:19:38;;;;;;;3.23;2.20;;;6.00;99.90;;;;;;5038194;28;20201;-88
2024/02/11 09:22:07;;;;;;;1.80;1.70;;;6.00;99.90;;;;;;5069490;28;20200;-86
2024/02/11 09:24:34;;;;;;;2.10;2.00;;;6.00;99.40;;;;;;5065792;28;20293;-87
2024/02/11 09:27:02;;;;;;;1.80;1.70;;;6.00;99.70;;;;;;5068812;28;20663;-89
2024/02/11 09:29:30;;;;;;;2.00;1.90;;;6.00;99.90;;;;;;5065070;28;20216;-86
2024/02/11 09:32:03;;;;;;;1.83;1.73;;;6.10;99.80;;;;;;5067638;28;20693;-87
2024/02/11 09:34:29;;;;;;;2.10;1.80;;;6.10;99.90;;;;;;5045284;28;20205;-86
2024/02/11 09:36:56;;;;;;;1.70;1.60;;;6.20;99.70;;;;;;5068811;28;20201;-86
2024/02/11 09:39:23;;;;;;;2.03;1.93;;;6.10;99.70;;;;;;5066484;28;20585;-85
2024/02/11 09:41:51;;;;;;;1.70;1.60;;;6.10;99.90;;;;;;5069100;28;20662;-85
2024/02/11 09:44:22;;;;;;;2.30;2.10;;;6.20;99.90;;;;;;5061331;28;20212;-85
2024/02/11 09:46:51;;;;;;;2.40;1.80;;;6.20;99.90;;;;;;5029697;28;20205;-86
2024/02/11 09:49:20;;;;;;;2.10;1.90;;;6.30;99.80;;;;;;5067252;28;20204;-86
2024/02/11 09:51:48;;;;;;;2.10;1.90;;;6.30;98.90;;;;;;5070874;28;20217;-86
2024/02/11 09:54:16;;;;;;;2.17;1.97;;;6.30;99.00;;;;;;5066015;28;20194;-85
2024/02/11 09:56:44;;;;;;;2.20;2.00;;;6.30;99.30;;;;;;5061937;28;20232;-87
2024/02/11 09:59:11;;;;;;;2.30;2.10;;;6.40;99.50;;;;;;5050821;28;20198;-87
2024/02/11 10:01:41;;;;;;;2.43;2.20;;;6.40;99.30;;;;;;5069709;28;20205;-89
2024/02/11 10:04:10;;;;;;;2.30;2.10;;;6.50;99.10;;;;;;5062839;28;20202;-91
2024/02/11 10:06:39;;;;;;;2.63;2.43;;;6.50;99.20;;;;;;5067778;28;20227;-91
2024/02/11 10:09:10;;;;;;;2.80;2.60;;;6.50;99.10;;;;;;5052129;28;20225;-91
2024/02/11 10:11:38;;;;;;;2.20;2.00;;;6.60;99.30;;;;;;5062922;28;20901;-87
2024/02/11 10:14:11;;;;;;;3.10;2.80;;;6.50;99.40;;;;;;5046706;28;20202;-88
2024/02/11 10:16:39;;;;;;;2.30;2.10;;;6.70;99.00;;;;;;5033795;28;20228;-89
2024/02/11 10:19:07;;;;;;;3.20;2.30;;;6.60;99.00;;;;;;5060525;28;20206;-87
2024/02/11 10:21:34;;;;;;;2.13;1.98;;;6.60;99.10;;;;;;5062408;28;20201;-88
2024/02/11 10:24:01;;;;;;;2.45;2.25;;;6.70;98.90;;;;;;5050440;28;20201;-87
2024/02/11 10:26:29;;;;;;;2.83;2.50;;;6.70;98.60;;;;;;5065828;28;20869;-92
2024/02/11 10:28:58;;;;;;;2.42;2.22;;;6.70;98.70;;;;;;5062436;28;20205;-89
2024/02/11 10:31:29;;;;;;;2.57;2.30;;;6.70;98.60;;;;;;5060996;28;20942;-92
2024/02/11 10:33:58;;;;;;;2.33;2.13;;;6.70;98.10;;;;;;5049380;28;20613;-89
2024/02/11 10:36:26;;;;;;;2.93;2.60;;;6.90;98.10;;;;;;5068112;28;20270;-88
2024/02/11 10:38:54;;;;;;;3.83;2.60;;;6.90;98.00;;;;;;5045659;28;20201;-89
2024/02/11 10:41:22;;;;;;;2.47;2.20;;;7.00;97.90;;;;;;5055252;28;20230;-89
2024/02/11 10:43:50;;;;;;;2.40;2.17;;;6.90;97.20;;;;;;5043320;28;20612;-88
2024/02/11 10:46:17;;;;;;;3.50;2.70;;;6.90;97.40;;;;;;5056316;28;20206;-91
2024/02/11 11:13:53;;;;;;;2.95;2.63;;;7.40;96.10;;;;;;5118062;22;20293;-90
2024/02/11 11:16:24;;;;;;;3.47;2.92;;;7.40;96.60;;;;;;5092311;28;20200;-91
2024/02/11 11:18:52;;;;;;;3.70;2.92;;;7.50;96.80;;;;;;5090827;28;20667;-92
2024/02/11 11:21:19;;;;;;;3.80;2.97;;;7.50;95.60;;;;;;5077499;28;20196;-91
2024/02/11 11:23:48;;;;;;;4.65;3.00;;;7.60;96.20;;;;;;5094993;28;20201;-90
2024/02/11 11:26:49;;;;;;;4.10;3.10;;;7.60;95.60;;;;;;5095072;28;20197;-90
2024/02/11 11:29:36;;;;;;;3.17;2.80;;;7.50;96.50;;;;;;5094861;28;20249;-90
2024/02/11 11:32:09;;;;;;;4.70;3.22;;;7.60;96.20;;;;;;5082322;28;20216;-91
2024/02/11 11:34:39;;;;;;;4.22;3.05;;;7.60;96.20;;;;;;5093028;28;20704;-90
2024/02/11 11:37:13;;;;;;;3.25;2.88;;;7.70;96.30;;;;;;5090093;28;20204;-90
2024/02/11 11:39:40;;;;;;;3.42;2.97;;;7.90;95.70;;;;;;5078821;28;20208;-89
2024/02/11 11:42:08;;;;;;;4.38;3.03;;;7.80;95.70;;;;;;5072785;28;20235;-91
2024/02/11 11:44:38;;;;;;;3.45;2.95;;;7.90;95.70;;;;;;5099344;28;20188;-92
2024/02/11 11:47:21;;;;;;;4.65;3.67;;;7.90;95.30;;;;;;5078427;28;20200;-92
2024/02/11 11:49:50;;;;;;;3.13;2.80;;;7.90;94.80;;;;;;5056473;28;20205;-94
2024/02/11 11:52:19;;;;;;;5.10;3.63;;;8.00;95.50;;;;;;5091342;28;20588;-94
2024/02/11 11:54:46;;;;;;;5.07;3.90;;;8.00;95.30;;;;;;5089648;28;20200;-94
2024/02/11 11:57:14;;;;;;;4.20;3.15;;;7.90;94.60;;;;;;5094848;28;20222;-94
2024/02/11 11:59:43;;;;;;;4.30;3.13;;;8.00;94.10;;;;;;5062212;28;20680;-86
2024/02/11 12:02:10;;;;;;;3.78;3.03;;;8.00;94.40;;;;;;5081523;28;20203;-89
2024/02/11 12:04:37;;;;;;;3.20;2.70;;;8.10;94.60;;;;;;5071216;28;20204;-86
2024/02/11 12:07:07;;;;;;;3.45;3.15;;;8.10;94.80;;;;;;5085947;28;20666;-90
2024/02/11 12:09:35;;;;;;;3.50;2.80;;;8.20;94.70;;;;;;5075984;28;20207;-90
2024/02/11 12:12:04;;;;;;;3.30;3.00;;;8.20;93.80;;;;;;5089958;28;20215;-94
2024/02/11 12:14:31;;;;;;;4.45;3.33;;;8.20;93.60;;;;;;5098071;28;20266;-90
2024/02/11 12:17:14;;;;;;;4.68;3.10;;;8.20;93.60;;;;;;5068878;28;20201;-91
2024/02/11 12:19:43;;;;;;;3.38;2.78;;;8.30;93.50;;;;;;5063804;28;20212;-90
2024/02/11 12:22:10;;;;;;;3.90;3.38;;;8.20;93.20;;;;;;5093908;28;20228;-90
2024/02/11 12:24:41;;;;;;;3.55;3.13;;;8.20;93.10;;;;;;5094573;28;20339;-91
2024/02/11 12:27:14;;;;;;;4.10;3.08;;;8.20;93.70;;;;;;5086545;28;20623;-91
2024/02/11 12:29:41;;;;;;;4.03;3.10;;;8.20;94.00;;;;;;5091405;28;20292;-91
2024/02/11 12:32:11;;;;;;;3.88;3.00;;;8.20;93.40;;;;;;5091862;28;20221;-91
2024/02/11 12:34:38;;;;;;;3.78;3.10;;;8.30;93.10;;;;;;5068498;28;21430;-90
2024/02/11 12:37:06;;;;;;;4.95;3.40;;;8.30;93.30;;;;;;5082458;28;20200;-92
2024/02/11 12:39:36;;;;;;;3.88;3.15;;;8.40;92.90;;;;;;5088923;28;20235;-91
2024/02/11 12:42:03;;;;;;;3.97;2.92;;;8.40;92.50;;;;;;5064833;28;20205;-93
2024/02/11 12:44:32;;;;;;;3.42;2.90;;;8.40;92.30;;;;;;5065322;28;20201;-88
2024/02/11 12:46:59;;;;;;;4.95;3.13;;;8.50;92.80;;;;;;5063910;28;20351;-88
2024/02/11 12:49:27;;;;;;;4.50;3.40;;;8.50;92.60;;;;;;5087870;28;20204;-87
2024/02/11 12:51:54;;;;;;;3.63;3.10;;;8.50;92.20;;;;;;5086852;28;20212;-88
2024/02/11 12:54:21;;;;;;;3.60;2.90;;;8.50;91.70;;;;;;5089077;28;20196;-87
2024/02/11 12:56:48;;;;;;;3.85;2.90;;;8.50;91.60;;;;;;5082748;28;20248;-88
2024/02/11 12:59:15;;;;;;;4.70;3.25;;;8.50;92.20;;;;;;5083762;28;20192;-87
2024/02/11 13:01:43;;;;;;;3.35;2.75;;;8.40;92.30;;;;;;5088100;28;20199;-89
2024/02/11 13:04:10;;;;;;;5.45;3.28;;;8.40;92.00;;;;;;5051453;28;20202;-89
2024/02/11 13:06:40;;;;;;;3.03;2.72;;;8.30;92.20;;;;;;5080986;28;20529;-89
2024/02/11 13:09:09;;;;;;;3.30;2.92;;;8.20;92.70;;;;;;5082430;28;20197;-89
2024/02/11 13:11:54;;;;;;;3.55;2.85;;;8.20;93.10;;;;;;5083333;28;20204;-88
2024/02/11 13:14:22;;;;;;;3.20;2.58;;;8.10;93.00;;;;;;5084021;28;20197;-88
2024/02/11 13:16:49;;;;;;;2.97;2.67;;;8.10;92.80;;;;;;5081742;28;20278;-91
2024/02/11 13:19:17;;;;;;;4.35;3.10;;;8.10;92.70;;;;;;5067489;28;20202;-88
2024/02/11 13:21:49;;;;;;;4.55;3.40;;;8.10;93.20;;;;;;5054160;28;20203;-88
2024/02/11 13:24:16;;;;;;;3.88;3.35;;;8.00;94.40;;;;;;5074565;28;20201;-89
2024/02/11 13:26:43;;;;;;;4.07;3.20;;;8.00;93.60;;;;;;5062496;28;20198;-88
2024/02/11 13:29:10;;;;;;;4.82;3.25;;;7.90;93.40;;;;;;5088740;28;22392;-88
2024/02/11 13:31:51;;;;;;;5.18;3.40;;;8.00;93.60;;;;;;5067965;28;20483;-86
2024/02/11 13:34:18;;;;;;;4.05;2.85;;;8.00;94.40;;;;;;5078735;28;20197;-88
2024/02/11 13:36:46;;;;;;;4.50;3.20;;;8.10;93.90;;;;;;5088396;28;20455;-88
2024/02/11 13:39:14;;;;;;;3.95;3.35;;;8.00;94.20;;;;;;5083168;28;20226;-89